Nissho Maru No.18 — JL6369 — position and weather

sailwx.info

Track history (hours):
 
Tides and Currents Weather Stations Pressure Air Temp Water Temp Dewpoint Dewpoint Depression Visibility Wind Speed Wind Dir Waves Ship Positions

Nissho Maru No.18

Last reported at 2016-May-05 19:33 UTC. Time now 2016-May-05 19:59 UTC.
Position N 35°32' E 139°55'.

Length 65 m; draft 4 m.

Type: Tanker. MMSI: 431500465.

Date/timePositionNaut miles runAvg speedWind from/ knotsBaromVisibWave heightAir tempDewpointWater temp
2016-May-05 19:33N 35°32' E 139°55'0 0.0
2016-May-05 18:33N 35°32' E 139°55'0 0.0
2016-May-05 17:33N 35°32' E 139°55'0 0.0
2016-May-05 16:33N 35°32' E 139°55'0 0.0
2016-May-05 15:33N 35°32' E 139°55'0 0.0
2016-May-05 14:33N 35°32' E 139°55'0 0.0
2016-May-05 13:33N 35°32' E 139°55'0 0.0
2016-May-05 12:33N 35°32' E 139°55'0 0.0
2016-May-05 11:33N 35°32' E 139°55'0 0.1
2016-May-05 10:33N 35°32' E 139°55'0 0.0
2016-May-05 09:33N 35°32' E 139°55'0 0.0
2016-May-05 08:33N 35°32' E 139°55'0 0.0
2016-May-05 07:33N 35°32' E 139°55'0 0.0
2016-May-05 06:33N 35°33' E 139°55'0 0.0
2016-May-05 05:34N 35°33' E 139°55'0 0.0
2016-May-05 04:33N 35°33' E 139°55'0 0.0
2016-May-05 03:33N 35°33' E 139°55'3 3.1
2016-May-05 02:34N 35°30' E 139°53'8 7.8
2016-May-05 01:33N 35°25' E 139°46'4 4.4
2016-May-05 00:33N 35°22' E 139°41'3 3.3
2016-May-04 23:34N 35°25' E 139°39'2 2.3
2016-May-04 22:33N 35°23' E 139°41'3 2.9
2016-May-04 21:33N 35°24' E 139°45'0 0.0
2016-May-04 20:32N 35°24' E 139°45'0 0.0
2016-May-04 19:31N 35°24' E 139°45'0 0.0
2016-May-04 18:32N 35°24' E 139°45'0 0.0
2016-May-04 17:33N 35°24' E 139°45'0 0.0
2016-May-04 16:33N 35°24' E 139°45'0 0.0
2016-May-04 15:33N 35°24' E 139°45'0 0.0
2016-May-04 14:33N 35°24' E 139°45'0 0.1
2016-May-04 13:32N 35°24' E 139°45'0 0.1
2016-May-04 12:33N 35°24' E 139°45'0 0.0
2016-May-04 11:33N 35°24' E 139°45'0 0.0
2016-May-04 10:33N 35°24' E 139°45'0 0.0
2016-May-04 09:33N 35°24' E 139°45'0 0.0
2016-May-04 08:33N 35°24' E 139°45'0 0.0
2016-May-04 07:33N 35°24' E 139°45'0 0.0
2016-May-04 06:33N 35°24' E 139°45'0 0.0
2016-May-04 05:33N 35°24' E 139°45'0 0.0
2016-May-04 04:33N 35°24' E 139°45'0 0.0
2016-May-04 03:33N 35°24' E 139°44'1 0.9
2016-May-04 02:33N 35°25' E 139°45'6 6.5
2016-May-04 01:33N 35°31' E 139°45'0 0.1
2016-May-04 00:33N 35°31' E 139°45'0 0.0
2016-May-03 23:33N 35°31' E 139°45'0 0.0
2016-May-03 22:33N 35°31' E 139°45'7 6.6
2016-May-03 21:33N 35°25' E 139°43'3 3.1
2016-May-03 20:33N 35°23' E 139°40'0 0.0
2016-May-03 19:33N 35°23' E 139°40'0 0.0
2016-May-03 18:30N 35°23' E 139°40'0 0.0
2016-May-03 17:33N 35°23' E 139°40'0 0.0
2016-May-03 16:33N 35°23' E 139°40'0 0.0
2016-May-03 15:33N 35°23' E 139°40'0 0.0
2016-May-03 14:34N 35°23' E 139°40'0 0.0
2016-May-03 13:33N 35°23' E 139°40'0 0.0
2016-May-03 12:32N 35°23' E 139°40'0 0.0
2016-May-03 11:32N 35°23' E 139°40'0 0.0
2016-May-03 10:33N 35°23' E 139°40'0 0.0
2016-May-03 09:33N 35°23' E 139°40'0 0.0
2016-May-03 08:30N 35°23' E 139°40'2 2.4
2016-May-03 07:34N 35°25' E 139°39'0 0.1
2016-May-03 06:33N 35°25' E 139°39'0 0.0
2016-May-03 05:33N 35°25' E 139°39'0 0.0
2016-May-03 04:34N 35°25' E 139°39'0 0.0
2016-May-03 03:34N 35°25' E 139°39'3 3.1
2016-May-03 02:33N 35°25' E 139°43'6 6.1
2016-May-03 01:34N 35°31' E 139°45'0 0.0
2016-May-03 00:33N 35°31' E 139°45'0 0.0
2016-May-02 23:34N 35°31' E 139°45'0 0.0
2016-May-02 22:33N 35°31' E 139°45'4 3.7
2016-May-02 21:31N 35°29' E 139°49'0 0.0
2016-May-02 20:31N 35°29' E 139°49'0 0.0
2016-May-02 19:31N 35°29' E 139°49'0 0.1
2016-May-02 18:31N 35°29' E 139°49'0 0.0
2016-May-02 17:31N 35°29' E 139°49'0 0.0
2016-May-02 16:31N 35°29' E 139°49'0 0.0
2016-May-02 15:31N 35°29' E 139°49'0 0.0
2016-May-02 14:31N 35°29' E 139°49'0 0.0
2016-May-02 13:31N 35°29' E 139°49'0 0.0
2016-May-02 12:33N 35°29' E 139°49'0 0.0
2016-May-02 11:33N 35°29' E 139°49'0 0.0
2016-May-02 10:33N 35°29' E 139°49'0 0.0
2016-May-02 09:33N 35°29' E 139°49'0 0.0
2016-May-02 08:33N 35°29' E 139°49'2 2.2
2016-May-02 07:33N 35°28' E 139°47'7 7.0
2016-May-02 06:33N 35°25' E 139°39'0 0.0
2016-May-02 05:33N 35°25' E 139°39'0 0.0
2016-May-02 04:33N 35°25' E 139°39'0 0.0
2016-May-02 03:33N 35°25' E 139°39'0 0.0
2016-May-02 02:33N 35°25' E 139°39'2 2.0
2016-May-02 01:34N 35°23' E 139°41'1 0.5
2016-May-02 00:31N 35°23' E 139°40'0 0.0
2016-May-01 23:31N 35°23' E 139°40'0 0.0
2016-May-01 22:31N 35°23' E 139°40'0 0.0
2016-May-01 21:31N 35°23' E 139°40'0 0.0
2016-May-01 20:31N 35°23' E 139°40'0 0.0
2016-May-01 19:31N 35°23' E 139°40'0 0.0
2016-May-01 18:31N 35°23' E 139°40'0 0.0
2016-May-01 17:31N 35°23' E 139°40'0 0.0
2016-May-01 16:31N 35°23' E 139°40'0 0.0
2016-May-01 15:31N 35°23' E 139°40'0 0.0
2016-May-01 14:31N 35°23' E 139°40'7 7.0
2016-May-01 13:33N 35°17' E 139°45'10 9.8
2016-May-01 12:33N 35°08' E 139°46'  
2016-Apr-29 06:25N 34°35' E 134°51'9 9.8
2016-Apr-29 05:31N 34°37' E 135°01'9 9.4
2016-Apr-29 04:33N 34°35' E 135°11'10 9.8
2016-Apr-29 03:33N 34°34' E 135°23'3 2.6
2016-Apr-29 02:33N 34°33' E 135°26'0 0.0
2016-Apr-29 01:33N 34°33' E 135°26'0 0.0
2016-Apr-29 00:33N 34°33' E 135°26'1 0.9
2016-Apr-28 23:31N 34°33' E 135°25'5 4.8
2016-Apr-28 22:28N 34°32' E 135°19'0 0.0
2016-Apr-28 21:30N 34°32' E 135°19'0 0.0
2016-Apr-28 20:24N 34°32' E 135°19'0 0.0
2016-Apr-28 19:18N 34°32' E 135°19'0 0.0
2016-Apr-28 18:30N 34°32' E 135°19'0 0.0
2016-Apr-28 17:30N 34°32' E 135°19'3 3.1
2016-Apr-28 16:33N 34°33' E 135°16'10 9.9
2016-Apr-28 15:33N 34°35' E 135°04'237 9.5
2016-Apr-27 14:33N 33°49' E 130°22'9 9.4
2016-Apr-27 13:33N 33°43' E 130°14'9 9.1
2016-Apr-27 12:33N 33°38' E 130°05'4 0.2
2016-Apr-26 21:31N 33°37' E 130°01'9 9.4
2016-Apr-26 20:33N 33°41' E 130°11'10 9.3
2016-Apr-26 19:30N 33°47' E 130°20'17 8.7
2016-Apr-26 17:30N 33°57' E 130°37'  
Track history (hours):
 
Tides and Currents Weather Stations Pressure Air Temp Water Temp Dewpoint Dewpoint Depression Visibility Wind Speed Wind Dir Waves Ship Positions

Nissho Maru No.18

Last reported at 2016-May-05 19:33 UTC. Time now 2016-May-05 19:59 UTC.
Position N 35°32' E 139°55'.

Length 65 m; draft 4 m.

Type: Tanker. MMSI: 431500465.

Date/timePositionNaut miles runAvg speedWind from/ knotsBaromVisibWave heightAir tempDewpointWater temp
2016-May-05 19:33N 35°32' E 139°55'0 0.0
2016-May-05 18:33N 35°32' E 139°55'0 0.0
2016-May-05 17:33N 35°32' E 139°55'0 0.0
2016-May-05 16:33N 35°32' E 139°55'0 0.0
2016-May-05 15:33N 35°32' E 139°55'0 0.0
2016-May-05 14:33N 35°32' E 139°55'0 0.0
2016-May-05 13:33N 35°32' E 139°55'0 0.0
2016-May-05 12:33N 35°32' E 139°55'0 0.0
2016-May-05 11:33N 35°32' E 139°55'0 0.1
2016-May-05 10:33N 35°32' E 139°55'0 0.0
2016-May-05 09:33N 35°32' E 139°55'0 0.0
2016-May-05 08:33N 35°32' E 139°55'0 0.0
2016-May-05 07:33N 35°32' E 139°55'0 0.0
2016-May-05 06:33N 35°33' E 139°55'0 0.0
2016-May-05 05:34N 35°33' E 139°55'0 0.0
2016-May-05 04:33N 35°33' E 139°55'0 0.0
2016-May-05 03:33N 35°33' E 139°55'3 3.1
2016-May-05 02:34N 35°30' E 139°53'8 7.8
2016-May-05 01:33N 35°25' E 139°46'4 4.4
2016-May-05 00:33N 35°22' E 139°41'3 3.3
2016-May-04 23:34N 35°25' E 139°39'2 2.3
2016-May-04 22:33N 35°23' E 139°41'3 2.9
2016-May-04 21:33N 35°24' E 139°45'0 0.0
2016-May-04 20:32N 35°24' E 139°45'0 0.0
2016-May-04 19:31N 35°24' E 139°45'0 0.0
2016-May-04 18:32N 35°24' E 139°45'0 0.0
2016-May-04 17:33N 35°24' E 139°45'0 0.0
2016-May-04 16:33N 35°24' E 139°45'0 0.0
2016-May-04 15:33N 35°24' E 139°45'0 0.0
2016-May-04 14:33N 35°24' E 139°45'0 0.1
2016-May-04 13:32N 35°24' E 139°45'0 0.1
2016-May-04 12:33N 35°24' E 139°45'0 0.0
2016-May-04 11:33N 35°24' E 139°45'0 0.0
2016-May-04 10:33N 35°24' E 139°45'0 0.0
2016-May-04 09:33N 35°24' E 139°45'0 0.0
2016-May-04 08:33N 35°24' E 139°45'0 0.0
2016-May-04 07:33N 35°24' E 139°45'0 0.0
2016-May-04 06:33N 35°24' E 139°45'0 0.0
2016-May-04 05:33N 35°24' E 139°45'0 0.0
2016-May-04 04:33N 35°24' E 139°45'0 0.0
2016-May-04 03:33N 35°24' E 139°44'1 0.9
2016-May-04 02:33N 35°25' E 139°45'6 6.5
2016-May-04 01:33N 35°31' E 139°45'0 0.1
2016-May-04 00:33N 35°31' E 139°45'0 0.0
2016-May-03 23:33N 35°31' E 139°45'0 0.0
2016-May-03 22:33N 35°31' E 139°45'7 6.6
2016-May-03 21:33N 35°25' E 139°43'3 3.1
2016-May-03 20:33N 35°23' E 139°40'0 0.0
2016-May-03 19:33N 35°23' E 139°40'0 0.0
2016-May-03 18:30N 35°23' E 139°40'0 0.0
2016-May-03 17:33N 35°23' E 139°40'0 0.0
2016-May-03 16:33N 35°23' E 139°40'0 0.0
2016-May-03 15:33N 35°23' E 139°40'0 0.0
2016-May-03 14:34N 35°23' E 139°40'0 0.0
2016-May-03 13:33N 35°23' E 139°40'0 0.0
2016-May-03 12:32N 35°23' E 139°40'0 0.0
2016-May-03 11:32N 35°23' E 139°40'0 0.0
2016-May-03 10:33N 35°23' E 139°40'0 0.0
2016-May-03 09:33N 35°23' E 139°40'0 0.0
2016-May-03 08:30N 35°23' E 139°40'2 2.4
2016-May-03 07:34N 35°25' E 139°39'0 0.1
2016-May-03 06:33N 35°25' E 139°39'0 0.0
2016-May-03 05:33N 35°25' E 139°39'0 0.0
2016-May-03 04:34N 35°25' E 139°39'0 0.0
2016-May-03 03:34N 35°25' E 139°39'3 3.1
2016-May-03 02:33N 35°25' E 139°43'6 6.1
2016-May-03 01:34N 35°31' E 139°45'0 0.0
2016-May-03 00:33N 35°31' E 139°45'0 0.0
2016-May-02 23:34N 35°31' E 139°45'0 0.0
2016-May-02 22:33N 35°31' E 139°45'4 3.7
2016-May-02 21:31N 35°29' E 139°49'0 0.0
2016-May-02 20:31N 35°29' E 139°49'0 0.0
2016-May-02 19:31N 35°29' E 139°49'0 0.1
2016-May-02 18:31N 35°29' E 139°49'0 0.0
2016-May-02 17:31N 35°29' E 139°49'0 0.0
2016-May-02 16:31N 35°29' E 139°49'0 0.0
2016-May-02 15:31N 35°29' E 139°49'0 0.0
2016-May-02 14:31N 35°29' E 139°49'0 0.0
2016-May-02 13:31N 35°29' E 139°49'0 0.0
2016-May-02 12:33N 35°29' E 139°49'0 0.0
2016-May-02 11:33N 35°29' E 139°49'0 0.0
2016-May-02 10:33N 35°29' E 139°49'0 0.0
2016-May-02 09:33N 35°29' E 139°49'0 0.0
2016-May-02 08:33N 35°29' E 139°49'2 2.2
2016-May-02 07:33N 35°28' E 139°47'7 7.0
2016-May-02 06:33N 35°25' E 139°39'0 0.0
2016-May-02 05:33N 35°25' E 139°39'0 0.0
2016-May-02 04:33N 35°25' E 139°39'0 0.0
2016-May-02 03:33N 35°25' E 139°39'0 0.0
2016-May-02 02:33N 35°25' E 139°39'2 2.0
2016-May-02 01:34N 35°23' E 139°41'1 0.5
2016-May-02 00:31N 35°23' E 139°40'0 0.0
2016-May-01 23:31N 35°23' E 139°40'0 0.0
2016-May-01 22:31N 35°23' E 139°40'0 0.0
2016-May-01 21:31N 35°23' E 139°40'0 0.0
2016-May-01 20:31N 35°23' E 139°40'0 0.0
2016-May-01 19:31N 35°23' E 139°40'0 0.0
2016-May-01 18:31N 35°23' E 139°40'0 0.0
2016-May-01 17:31N 35°23' E 139°40'0 0.0
2016-May-01 16:31N 35°23' E 139°40'0 0.0
2016-May-01 15:31N 35°23' E 139°40'0 0.0
2016-May-01 14:31N 35°23' E 139°40'7 7.0
2016-May-01 13:33N 35°17' E 139°45'10 9.8
2016-May-01 12:33N 35°08' E 139°46'  
2016-Apr-29 06:25N 34°35' E 134°51'9 9.8
2016-Apr-29 05:31N 34°37' E 135°01'9 9.4
2016-Apr-29 04:33N 34°35' E 135°11'10 9.8
2016-Apr-29 03:33N 34°34' E 135°23'3 2.6
2016-Apr-29 02:33N 34°33' E 135°26'0 0.0
2016-Apr-29 01:33N 34°33' E 135°26'0 0.0
2016-Apr-29 00:33N 34°33' E 135°26'1 0.9
2016-Apr-28 23:31N 34°33' E 135°25'5 4.8
2016-Apr-28 22:28N 34°32' E 135°19'0 0.0
2016-Apr-28 21:30N 34°32' E 135°19'0 0.0
2016-Apr-28 20:24N 34°32' E 135°19'0 0.0
2016-Apr-28 19:18N 34°32' E 135°19'0 0.0
2016-Apr-28 18:30N 34°32' E 135°19'0 0.0
2016-Apr-28 17:30N 34°32' E 135°19'3 3.1
2016-Apr-28 16:33N 34°33' E 135°16'10 9.9
2016-Apr-28 15:33N 34°35' E 135°04'237 9.5
2016-Apr-27 14:33N 33°49' E 130°22'9 9.4
2016-Apr-27 13:33N 33°43' E 130°14'9 9.1
2016-Apr-27 12:33N 33°38' E 130°05'4 0.2
2016-Apr-26 21:31N 33°37' E 130°01'9 9.4
2016-Apr-26 20:33N 33°41' E 130°11'10 9.3
2016-Apr-26 19:30N 33°47' E 130°20'17 8.7
2016-Apr-26 17:30N 33°57' E 130°37'  

Dump ship's entire track history